Tiempo atmosférico en la estación meteorológica de Almonte, Huelva (5 m.)



Fecha
DESCASC
Temp. máxima en grados centígrados (hora)
DESCASC
Temp. mínima en grados centígrados (hora)
DESCASC
Temp. media en grados centígrados
DESCASC
Racha de viento máxima en m/sg (hora)
DESCASC
Velocidad máxima media en intervalos de 10 minutos(hora)
DESCASC
Precipitaciones diarias en mm
DESCASC
Precipitaciones de 00:00 a 06:00 en mm
DESCASC
Precipitaciones de 06:00 a 12:00 en mm
DESCASC
Precipitaciones de 12:00 a 18:00 en mm
DESCASC
Precipitaciones de 18:00 a 24:00 en mm
DESCASC
19-08-2018 37.2 (18:50) 16.5 (08:00) 26.9 8.33 (16:30) 6.11 (16:30) 0 0 0 0 0
18-08-2018 36.4 (15:50) 17.2 (06:00) 26.8 7.78 (17:00) 5.83 (17:00) 0 0 0 0 0
17-08-2018 30.4 (16:20) 13.2 (00:00) 21.8 8.33 (15:50) 6.39 (17:20) 0 0 0 0 0
16-08-2018 27.9 (15:40) 16.3 (00:00) 22.1 9.44 (16:40) 6.67 (17:10) 0 0 0 0 0
15-08-2018 27.5 (14:50) 11 (00:00) 19.3 9.72 (14:30) 7.22 (18:10) 0 0 0 0 0
14-08-2018 30.3 (14:20) 14.8 (00:00) 22.5 9.17 (16:40) 7.22 (17:20) 0 0 0 0 0
13-08-2018 32.2 (16:00) 15.4 (00:00) 23.8 10.83 (19:00) 8.06 (18:40) 0 0 0 0 0
12-08-2018 33.5 (13:20) 20.2 (00:00) 26.9 10 (19:30) 7.5 (16:20) 0 0 0 0 0
11-08-2018 37.3 (15:30) 16.3 (00:00) 26.8 9.44 (20:00) 6.67 (16:20) 0 0 0 0 0
10-08-2018 34.8 (17:40) 14.6 (00:00) 24.7 7.78 (16:20) 6.39 (16:30) 0 0 0 0 0
09-08-2018 31.4 (16:20) 15.3 (00:00) 23.3 9.72 (15:50) 7.22 (17:30) 0 0 0 0 0
08-08-2018 30.1 (15:30) 16.1 (00:00) 23.1 10 (18:00) 7.78 (17:20) 0 0 0 0 0
07-08-2018 39 (16:40) 20.7 (00:00) 29.9 8.33 (16:20) 6.39 (19:30) 0 0 0 0 0
06-08-2018 40 (15:40) 16.9 (00:00) 28.4 8.89 (16:50) 6.67 (16:40) 0 0 0 0 0
05-08-2018 39.8 (15:30) 16.7 (00:00) 28.3 8.61 (18:50) 6.11 (15:50) 0 0 0 0 0
04-08-2018 33.4 (14:20) 21.2 (07:30) 27.3 7.5 (19:30) 5.56 (15:20) 0 0 0 0 0
03-08-2018 40.3 (14:30) 17.8 (00:00) 29 7.5 (16:50) 5.83 (17:00) 0 0 0 0 0
02-08-2018 42.4 (17:30) 20.2 (00:00) 31.3 10 (15:10) 4.17 (14:40) 0 0 0 0 0
01-08-2018 40.4 (18:20) 16.4 (07:50) 28.4 10 (19:00) 4.72 (15:50) 0 0 0 0 0
31-07-2018 34.6 (16:50) 15.1 (00:00) 24.8 8.89 (17:10) 6.67 (16:00) 0 0 0 0 0
30-07-2018 29.2 (15:10) 12.1 (00:00) 20.7 11.39 (17:30) 8.61 (17:30) 0 0 0 0 0
29-07-2018 27.7 (15:30) 14.9 (00:00) 21.3 11.11 (19:10) 8.61 (19:10) 0 0 0 0 0
28-07-2018 28.4 (14:00) 13.8 (00:00) 21.1 10 (17:30) 7.78 (17:50) 0 0 0 0 0
27-07-2018 30.7 (15:20) 14.3 (00:00) 22.5 10.28 (18:40) 7.78 (18:20) 0 0 0 0 0
26-07-2018 28.7 (16:00) 13.2 (00:00) 21 8.61 (18:40) 6.11 (18:20) 0 0 0 0 0
25-07-2018 29.9 (15:20) 12.1 (00:00) 21 9.17 (16:40) 7.22 (16:30) 0 0 0 0 0
24-07-2018 29.9 (16:30) 13.4 (00:00) 21.6 10.28 (17:50) 7.78 (17:50) 0 0 0 0 0
23-07-2018 30.2 (13:20) 12.9 (00:00) 21.6 9.72 (15:20) 7.78 (15:10) 0 0 0 0 0

Gráficas

Temp. máximas Temp. mínimas Temp. medias Precipitaciones Rachas de viento máximas Velocidades máximas media en intervalos de 10 minutos

Datos horarios

Fecha y hora oficial Temperatura (ºC) Velocidad del viento (km/h) Dirección del viento Racha (km/h) Dirección de racha Precipitación (mm) Presión (hPa) Tendencia (hPa) Humedad (%)
2018-08-21 23:00:00 24.2 4 Noroeste 13 Noroeste 0 -- -- 75
2018-08-21 22:00:00 25.3 7 Noroeste 26 Oeste 0 -- -- 72
2018-08-21 21:00:00 26.6 15 Oeste 27 Sudoeste 0 -- -- 64
2018-08-21 20:00:00 29.1 18 Sudoeste 31 Sudoeste 0 -- -- 56
2018-08-21 19:00:00 31.3 19 Sudoeste 31 Sudoeste 0 -- -- 50
2018-08-21 18:00:00 33 23 Sudoeste 33 Sudoeste 0 -- -- 45
2018-08-21 17:00:00 34.4 25 Sudoeste 35 Sudoeste 0 -- -- 40
2018-08-21 16:00:00 35.2 22 Sudoeste 29 Sur 0 -- -- 36
2018-08-21 15:00:00 34.9 20 Sudoeste 28 Sudoeste 0 -- -- 34
2018-08-21 14:00:00 34.6 8 Nordeste 18 Nordeste 0 -- -- 29
2018-08-21 13:00:00 33.6 8 Este 23 Nordeste 0 -- -- 32
2018-08-21 12:00:00 31.6 10 Nordeste 21 Este 0 -- -- 37
2018-08-21 11:00:00 28.7 11 Nordeste 18 Nordeste 0 -- -- 45
2018-08-21 10:00:00 25.6 9 Nordeste 17 Nordeste 0 -- -- 55
2018-08-21 09:00:00 20.5 8 Nordeste 12 Nordeste 0 -- -- 78
2018-08-21 08:00:00 18.4 6 Nordeste 14 Nordeste 0 -- -- 81
2018-08-21 07:00:00 18.9 5 Este 13 Norte 0 -- -- 80
2018-08-21 06:00:00 20.6 7 Norte 13 Noroeste 0 -- -- 79
2018-08-21 05:00:00 21.2 5 Norte 13 Norte 0 -- -- 77
2018-08-21 04:00:00 21 4 Norte 9 Norte 0 -- -- 78
2018-08-21 03:00:00 20.8 4 Nordeste 9 Noroeste 0 -- -- 75
2018-08-21 02:00:00 23.2 5 Norte 13 Norte 0 -- -- 69
2018-08-21 01:00:00 23.2 6 Norte 9 Noroeste 0 -- -- 55
2018-08-21 00:00:00 23.7 0 Calma 5 Sudeste 0 -- -- 52
2018-08-20 23:00:00 26.3 0 Calma 16 Sur 0 -- -- 45
2018-08-20 22:00:00 28.5 5 Sudeste 15 Sur 0 -- -- 42
2018-08-20 21:00:00 31.7 8 Sudeste 26 Sur 0 -- -- 34
2018-08-20 20:00:00 34.2 12 Sur 22 Sudoeste 0 -- -- 36
2018-08-20 19:00:00 34.8 15 Sudoeste 22 Sudoeste 0 -- -- 35
2018-08-20 18:00:00 34.8 19 Sudoeste 26 Oeste 0 -- -- 36
2018-08-20 17:00:00 35.6 17 Sudoeste 28 Oeste 0 -- -- 36
2018-08-20 16:00:00 36.2 15 Oeste 25 Oeste 0 -- -- 33
2018-08-20 15:00:00 35.4 6 Oeste 17 Nordeste 0 -- -- 32
2018-08-20 14:00:00 34 8 Nordeste 22 Nordeste 0 -- -- 36
2018-08-20 13:00:00 33.4 7 Este 22 Este 0 -- -- 38
2018-08-20 12:00:00 32.3 10 Este 24 Nordeste 0 -- -- 39
2018-08-20 11:00:00 29.3 10 Este 23 Este 0 -- -- 47
2018-08-20 10:00:00 25.4 8 Nordeste 13 Nordeste 0 -- -- 65
2018-08-20 09:00:00 20.4 3 Este 10 Norte 0 -- -- 80
2018-08-20 08:00:00 19 6 Nordeste 10 Norte 0 -- -- 81
2018-08-20 07:00:00 18.7 4 Nordeste 9 Nordeste 0 -- -- 80
2018-08-20 06:00:00 19.6 3 Nordeste 8 Nordeste 0 -- -- 78
2018-08-20 05:00:00 20.9 6 Nordeste 13 Nordeste 0 -- -- 74
2018-08-20 04:00:00 20.9 12 Nordeste 14 Norte 0 -- -- 73
2018-08-20 03:00:00 21.3 7 Norte 13 Norte 0 -- -- 70
2018-08-20 02:00:00 20.8 5 Norte 8 Nordeste 0 -- -- 69
2018-08-20 01:00:00 23.1 4 Noroeste 10 Noroeste 0 -- -- 60
2018-08-20 00:00:00 24.2 3 Oeste 8 Sur 0 -- -- 57
2018-08-19 23:00:00 26.2 2 Oeste 14 Sur 0 -- -- 51
2018-08-19 22:00:00 28.1 10 Sur 17 Sur 0 -- -- 47
2018-08-19 21:00:00 31.6 13 Sur 26 Sur 0 -- -- 40
2018-08-19 20:00:00 35 17 Sur 27 Sur 0 -- -- 34
2018-08-19 19:00:00 37.1 14 Sur 26 Sudoeste 0 -- -- 31
2018-08-19 18:00:00 37 15 Sudoeste 22 Oeste 0 -- -- 34
2018-08-19 17:00:00 36.6 15 Sudoeste 30 Sudoeste 0 -- -- 35
2018-08-19 16:00:00 36.9 13 Sudoeste 21 Sudoeste 0 -- -- 33
2018-08-19 15:00:00 36.5 9 Nordeste 24 Este 0 -- -- 32
2018-08-19 14:00:00 36.1 9 Sudeste 23 Este 0 -- -- 33
2018-08-19 13:00:00 34.4 6 Sudeste 18 Este 0 -- -- 35
2018-08-19 12:00:00 31.5 8 Nordeste 19 Nordeste 0 -- -- 42
2018-08-19 11:00:00 28.8 10 Nordeste 18 Nordeste 0 -- -- 54
2018-08-19 10:00:00 24.9 9 Nordeste 14 Nordeste 0 -- -- 66
2018-08-19 09:00:00 19.4 5 Nordeste 8 Norte 0 -- -- 87
2018-08-19 08:00:00 16.5 2 Nordeste 6 Nordeste 0 -- -- 87
2018-08-19 07:00:00 17.7 0 Calma 9 Nordeste 0 -- -- 82
2018-08-19 06:00:00 18.6 7 Nordeste 9 Nordeste 0 -- -- 83
2018-08-19 05:00:00 21.2 2 Norte 8 Noroeste 0 -- -- 75
2018-08-19 04:00:00 22 4 Norte 13 Norte 0 -- -- 75
2018-08-19 03:00:00 22.3 7 Norte 13 Norte 0 -- -- 77
2018-08-19 02:00:00 22.1 6 Norte 9 Norte 0 -- -- 79
2018-08-19 01:00:00 21.6 5 Nordeste 13 Noroeste 0 -- -- 76
2018-08-19 00:00:00 22.6 6 Noroeste 13 Noroeste 0 -- -- 75
2018-08-18 23:00:00 23.4 4 Nordeste 6 Nordeste 0 -- -- 72
2018-08-18 22:00:00 26.6 2 Noroeste 6 Noroeste 0 -- -- 65
2018-08-18 21:00:00 28.8 4 Oeste 20 Oeste 0 -- -- 59
2018-08-18 20:00:00 31.2 16 Oeste 24 Sudoeste 0 -- -- 51
2018-08-18 19:00:00 32.6 18 Oeste 25 Sudoeste 0 -- -- 47
2018-08-18 18:00:00 34.3 20 Sudoeste 27 Sudoeste 0 -- -- 41
2018-08-18 17:00:00 35.5 21 Sudoeste 28 Sudoeste 0 -- -- 37
2018-08-18 16:00:00 36.2 16 Sudoeste 25 Oeste 0 -- -- 36
2018-08-18 15:00:00 35.9 9 Este 27 Este 0 -- -- 29
2018-08-18 14:00:00 34.2 8 Nordeste 22 Este 0 -- -- 37
2018-08-18 13:00:00 33 10 Nordeste 22 Este 0 -- -- 38
2018-08-18 12:00:00 31.5 7 Este 19 Este 0 -- -- 43
2018-08-18 11:00:00 28 8 Nordeste 14 Nordeste 0 -- -- 57
2018-08-18 10:00:00 23.8 6 Nordeste 9 Nordeste 0 -- -- 76
2018-08-18 09:00:00 19.1 7 Nordeste 11 Nordeste 0 -- -- 90
2018-08-18 08:00:00 17.3 5 Nordeste 9 Nordeste 0 -- -- 95
2018-08-18 07:00:00 17.5 3 Nordeste 6 Nordeste 0 -- -- 95
2018-08-18 06:00:00 17.2 3 Nordeste 5 Sur 0 -- -- 93
2018-08-18 05:00:00 17.5 3 Sur 5 Sur 0 -- -- 91
2018-08-18 04:00:00 18.8 4 Oeste 12 Noroeste 0 -- -- 92
2018-08-18 03:00:00 18.7 3 Sur 5 Sur 0 -- -- 91
2018-08-18 02:00:00 19.1 4 Sur 7 Sur 0 -- -- 90
2018-08-18 01:00:00 19.7 2 Sudeste 9 Sur 0 -- -- 82
2018-08-18 00:00:00 20.7 3 Sudoeste 7 Sur 0 -- -- 80
2018-08-17 23:00:00 21.4 8 Sur 11 Sur 0 -- -- 76
2018-08-17 22:00:00 23.1 8 Oeste 21 Oeste 0 -- -- 71
2018-08-17 21:00:00 24.7 13 Oeste 25 Oeste 0 -- -- 71
2018-08-17 20:00:00 26.4 19 Oeste 28 Oeste 0 -- -- 66
2018-08-17 19:00:00 28.7 19 Oeste 28 Oeste 0 -- -- 56
2018-08-17 18:00:00 30.1 20 Oeste 30 Oeste 0 -- -- 52
2018-08-17 17:00:00 29.7 22 Oeste 30 Oeste 0 -- -- 52
2018-08-17 16:00:00 29.9 21 Sudoeste 30 Oeste 0 -- -- 51
2018-08-17 15:00:00 29.6 19 Sudoeste 26 Sudoeste 0 -- -- 55
2018-08-17 14:00:00 29.2 14 Sudoeste 24 Oeste 0 -- -- 57
2018-08-17 13:00:00 28.2 15 Sudoeste 22 Sudoeste 0 -- -- 60
2018-08-17 12:00:00 27.2 5 Sudeste 13 Sudeste 0 -- -- 64
2018-08-17 11:00:00 24 5 Sur 15 Sur 0 -- -- 76
2018-08-17 10:00:00 19.7 0 Calma 4 Noroeste 0 -- -- 97
2018-08-17 09:00:00 16.1 0 Calma 5 Noroeste 0 -- -- 97
2018-08-17 08:00:00 14 0 Calma 3 Noroeste 0 -- -- 95
2018-08-17 07:00:00 13.7 0 Calma 4 Nordeste 0 -- -- 92
2018-08-17 06:00:00 14.2 2 Nordeste 4 Nordeste 0 -- -- 93
2018-08-17 05:00:00 14.4 2 Nordeste 4 Nordeste 0 -- -- 92
2018-08-17 04:00:00 15.1 0 Calma 6 Norte 0 -- -- 91
2018-08-17 03:00:00 15.9 0 Calma 7 Norte 0 -- -- 89
2018-08-17 02:00:00 16.1 3 Nordeste 5 Nordeste 0 -- -- 91
2018-08-17 01:00:00 16.7 0 Calma 6 Nordeste 0 -- -- 88
2018-08-17 00:00:00 17.7 6 Sudoeste 8 Sudoeste 0 -- -- 85
2018-08-16 23:00:00 19.3 3 Sudoeste 11 Oeste 0 -- -- 83
2018-08-16 22:00:00 20.4 7 Oeste 21 Oeste 0 -- -- 78
2018-08-16 21:00:00 22.5 13 Sudoeste 23 Oeste 0 -- -- 69
2018-08-16 20:00:00 24.5 18 Oeste 27 Oeste 0 -- -- 61
2018-08-16 19:00:00 25.7 21 Sudoeste 33 Sudoeste 0 -- -- 55
2018-08-16 18:00:00 26.9 21 Oeste 33 Sudoeste 0 -- -- 52
2018-08-16 17:00:00 27.3 22 Sudoeste 34 Sudoeste 0 -- -- 49
2018-08-16 16:00:00 27.6 20 Sudoeste 32 Sudoeste 0 -- -- 50
2018-08-16 15:00:00 27.2 15 Oeste 30 Oeste 0 -- -- 52
2018-08-16 14:00:00 26.1 10 Sur 21 Sudoeste 0 -- -- 60
2018-08-16 13:00:00 25.3 10 Sudoeste 17 Sudoeste 0 -- -- 61
2018-08-16 12:00:00 24.5 5 Sudoeste 16 Este 0 -- -- 63
2018-08-16 11:00:00 24.5 8 Sudeste 15 Sudeste 0 -- -- 61
2018-08-16 10:00:00 21.8 3 Sudeste 11 Sur 0 -- -- 72
2018-08-16 09:00:00 20.8 9 Sur 13 Sur 0 -- -- 75
2018-08-16 08:00:00 20.3 0 Calma 6 Sudeste 0 -- -- 79
2018-08-16 07:00:00 20.3 2 Sudeste 8 Sudeste 0 -- -- 80
2018-08-16 06:00:00 20.1 3 Este 10 Sur 0 -- -- 83
2018-08-16 05:00:00 19.8 6 Sur 15 Sur 0 -- -- 83
2018-08-16 04:00:00 19.2 9 Sur 15 Sur 0 -- -- 88
2018-08-16 03:00:00 18.6 8 Sur 14 Sur 0 -- -- 90
2018-08-16 02:00:00 17.6 6 Sur 9 Sur 0 -- -- 94
2018-08-16 01:00:00 16.3 5 Sur 8 Sudeste 0 -- -- 89
2018-08-16 00:00:00 17.1 2 Sudeste 6 Sur 0 -- -- 86
2018-08-15 23:00:00 18.8 4 Sur 8 Sudoeste 0 -- -- 87
2018-08-15 22:00:00 19.9 5 Sudoeste 17 Sudoeste 0 -- -- 84
2018-08-15 21:00:00 21.6 12 Sudoeste 26 Sudoeste 0 -- -- 78
2018-08-15 20:00:00 23.5 18 Sudoeste 31 Sudoeste 0 -- -- 71
2018-08-15 19:00:00 24.7 22 Sudoeste 34 Sudoeste 0 -- -- 67
2018-08-15 18:00:00 25.7 24 Sudoeste 34 Sudoeste 0 -- -- 63
2018-08-15 17:00:00 26.7 23 Sudoeste 35 Sudoeste 0 -- -- 59
2018-08-15 16:00:00 27.2 22 Sudoeste 33 Sudoeste 0 -- -- 57
2018-08-15 15:00:00 27.3 22 Sudoeste 35 Sudoeste 0 -- -- 57
2018-08-15 14:00:00 27.3 22 Sudoeste 31 Sudoeste 0 -- -- 57
2018-08-15 13:00:00 26.6 21 Sudoeste 31 Sudoeste 0 -- -- 60
2018-08-15 12:00:00 25.9 22 Sur 32 Sur 0 -- -- 62
2018-08-15 11:00:00 24.9 20 Sur 29 Sudoeste 0 -- -- 67
2018-08-15 10:00:00 20.1 11 Sur 18 Sur 0 -- -- 98
2018-08-15 09:00:00 15 3 Nordeste 5 Nordeste 0 -- -- 98
2018-08-15 08:00:00 12.5 3 Nordeste 5 Nordeste 0 -- -- 97
2018-08-15 07:00:00 11.8 4 Norte 6 Nordeste 0 -- -- 96
2018-08-15 06:00:00 11.2 2 Nordeste 5 Nordeste 0 -- -- 96
2018-08-15 05:00:00 11.1 3 Nordeste 6 Sur 0 -- -- 96
2018-08-15 04:00:00 11.4 0 Calma 3 Sudoeste 0 -- -- 95
2018-08-15 03:00:00 11.5 3 Sudoeste 5 Sur 0 -- -- 94
2018-08-15 02:00:00 12.2 0 Calma 3 Sudoeste 0 -- -- 92
2018-08-15 01:00:00 14.3 0 Calma 4 Nordeste 0 -- -- 85
2018-08-15 00:00:00 17.1 2 Sudoeste 7 Sudoeste 0 -- -- 93
2018-08-14 23:00:00 17.4 5 Sur 9 Sudoeste 0 -- -- 83
2018-08-14 22:00:00 19.3 6 Sudoeste 16 Oeste 0 -- -- 78
2018-08-14 21:00:00 22.9 12 Sudoeste 26 Oeste 0 -- -- 71
2018-08-14 20:00:00 25.4 18 Oeste 27 Oeste 0 -- -- 59
2018-08-14 19:00:00 27.1 22 Oeste 32 Oeste 0 -- -- 44
2018-08-14 18:00:00 28.7 23 Oeste 33 Sudoeste 0 -- -- 42
2018-08-14 17:00:00 29.3 23 Sudoeste 33 Sudoeste 0 -- -- 42
2018-08-14 16:00:00 29.1 21 Sudoeste 29 Sudoeste 0 -- -- 45
2018-08-14 15:00:00 29.8 21 Sudoeste 28 Sudoeste 0 -- -- 48
2018-08-14 14:00:00 30.2 17 Sudoeste 24 Sudoeste 0 -- -- 44
2018-08-14 13:00:00 29.9 15 Sur 22 Sudoeste 0 -- -- 50
2018-08-14 12:00:00 28.4 10 Sudoeste 17 Sur 0 -- -- 51
2018-08-14 11:00:00 25.1 4 Sudeste 10 Sudeste 0 -- -- 58
2018-08-14 10:00:00 20.9 3 Oeste 10 Oeste 0 -- -- 67
2018-08-14 09:00:00 18.3 4 Oeste 13 Noroeste 0 -- -- 78
2018-08-14 08:00:00 15.7 7 Noroeste 11 Noroeste 0 -- -- 87
2018-08-14 07:00:00 15.5 6 Oeste 10 Oeste 0 -- -- 86
2018-08-14 06:00:00 15.6 6 Sudoeste 8 Sudoeste 0 -- -- 84
2018-08-14 05:00:00 16.4 4 Oeste 8 Sudoeste 0 -- -- 85
2018-08-14 04:00:00 17.3 2 Sur 9 Sur 0 -- -- 83
2018-08-14 03:00:00 17.6 3 Oeste 7 Sur 0 -- -- 91
2018-08-14 02:00:00 18.2 2 Sudoeste 8 Sudoeste 0 -- -- 91
2018-08-14 01:00:00 18.8 6 Sudoeste 12 Sudoeste 0 -- -- 84
2018-08-14 00:00:00 20.8 10 Oeste 17 Oeste 0 -- -- 82
2018-08-13 23:00:00 21.6 12 Oeste 20 Oeste 0 -- -- 80
2018-08-13 22:00:00 22.4 15 Oeste 27 Oeste 0 -- -- 74
2018-08-13 21:00:00 23.9 19 Oeste 32 Sudoeste 0 -- -- 68
2018-08-13 20:00:00 25.4 25 Oeste 37 Sudoeste 0 -- -- 64
2018-08-13 19:00:00 26.6 27 Sudoeste 39 Oeste 0 -- -- 66
2018-08-13 18:00:00 30.5 26 Sudoeste 34 Sudoeste 0 -- -- 43
2018-08-13 17:00:00 31.3 25 Sudoeste 33 Sudoeste 0 -- -- 41
2018-08-13 16:00:00 32.2 22 Oeste 30 Oeste 0 -- -- 41
2018-08-13 15:00:00 30.8 23 Sudoeste 31 Oeste 0 -- -- 48
2018-08-13 14:00:00 30.3 22 Sudoeste 30 Sudoeste 0 -- -- 46
2018-08-13 13:00:00 29.9 17 Sudoeste 24 Sudoeste 0 -- -- 51
2018-08-13 12:00:00 28.1 9 Sudoeste 17 Oeste 0 -- -- 53
2018-08-13 11:00:00 25.9 10 Sudoeste 15 Sudoeste 0 -- -- 58
2018-08-13 10:00:00 21.7 4 Sudoeste 10 Noroeste 0 -- -- 73
2018-08-13 09:00:00 17.9 4 Norte 8 Noroeste 0 -- -- 90
2018-08-13 08:00:00 15.9 4 Noroeste 7 Oeste 0 -- -- 95
2018-08-13 07:00:00 16.6 3 Noroeste 6 Oeste 0 -- -- 92
2018-08-13 06:00:00 15.9 5 Oeste 6 Sudoeste 0 -- -- 92
2018-08-13 05:00:00 17.4 3 Nordeste 6 Sudeste 0 -- -- 93
2018-08-13 04:00:00 18.9 4 Nordeste 6 Nordeste 0 -- -- 95
2018-08-13 03:00:00 19.4 2 Sudeste 8 Sudoeste 0 -- -- 93
2018-08-13 02:00:00 20 6 Sudoeste 15 Sudoeste 0 -- -- 93
2018-08-13 01:00:00 20.4 4 Sudoeste 12 Sur 0 -- -- 93
2018-08-13 00:00:00 21.2 3 Sudoeste 9 Sudoeste 0 -- -- 91
2018-08-12 23:00:00 22 5 Sudoeste 10 Sudoeste 0 -- -- 89
2018-08-12 22:00:00 23.4 9 Sudoeste 23 Oeste 0 -- -- 87
2018-08-12 21:00:00 25 16 Oeste 30 Oeste 0 -- -- 80
2018-08-12 20:00:00 26.8 25 Oeste 36 Sudoeste 0 -- -- 72
2018-08-12 19:00:00 28.7 25 Oeste 36 Sudoeste 0 -- -- 64
2018-08-12 18:00:00 30.7 24 Oeste 34 Sudoeste 0 -- -- 56
2018-08-12 17:00:00 31.8 24 Oeste 35 Sudoeste 0 -- -- 52
2018-08-12 16:00:00 32.5 24 Sudoeste 32 Sudoeste 0 -- -- 51
2018-08-12 15:00:00 32.3 24 Sudoeste 30 Oeste 0 -- -- 50
2018-08-12 14:00:00 33.3 19 Oeste 27 Sudoeste 0 -- -- 47
2018-08-12 13:00:00 32.9 14 Sudoeste 23 Sudoeste 0 -- -- 45
2018-08-12 12:00:00 31.5 12 Sudoeste 20 Sudoeste 0 -- -- 47
2018-08-12 11:00:00 29.8 5 Sur 12 Oeste 0 -- -- 52
2018-08-12 10:00:00 26.4 8 Oeste 13 Sudoeste 0 -- -- 61
2018-08-12 09:00:00 21.6 5 Oeste 8 Oeste 0 -- -- 77
2018-08-12 08:00:00 20.5 3 Oeste 11 Sudoeste 0 -- -- 90
2018-08-12 07:00:00 20.3 7 Sudoeste 10 Sudoeste 0 -- -- 87
2018-08-12 06:00:00 20.7 10 Sudoeste 12 Sudoeste 0 -- -- 87
2018-08-12 05:00:00 21.3 6 Sudoeste 12 Sudoeste 0 -- -- 90
2018-08-12 04:00:00 21.8 9 Sudoeste 13 Sudoeste 0 -- -- 87
2018-08-12 03:00:00 22 5 Oeste 7 Oeste 0 -- -- 88
2018-08-12 02:00:00 22.5 6 Sudoeste 10 Sudoeste 0 -- -- 86
2018-08-12 01:00:00 23.7 8 Oeste 11 Oeste 0 -- -- 81
2018-08-12 00:00:00 24.7 8 Oeste 15 Oeste 0 -- -- 78
2018-08-11 23:00:00 24.7 9 Oeste 19 Oeste 0 -- -- 76
2018-08-11 22:00:00 25.2 13 Oeste 22 Oeste 0 -- -- 73
2018-08-11 21:00:00 26.9 16 Oeste 31 Sudoeste 0 -- -- 70
2018-08-11 20:00:00 29.4 23 Oeste 34 Oeste 0 -- -- 55
2018-08-11 19:00:00 32.4 23 Oeste 32 Sudoeste 0 -- -- 48
2018-08-11 18:00:00 34.1 20 Sudoeste 31 Oeste 0 -- -- 45
2018-08-11 17:00:00 34.5 24 Sudoeste 31 Sudoeste 0 -- -- 41
2018-08-11 16:00:00 36 23 Sudoeste 31 Oeste 0 -- -- 35
2018-08-11 15:00:00 36.8 13 Sudoeste 24 Sudoeste 0 -- -- 36
2018-08-11 14:00:00 35.5 7 Sudeste 21 Sur 0 -- -- 38
2018-08-11 13:00:00 33.9 6 Este 19 Nordeste 0 -- -- 32
2018-08-11 12:00:00 31.7 8 Este 19 Nordeste 0 -- -- 36
2018-08-11 11:00:00 28.6 8 Nordeste 16 Nordeste 0 -- -- 47
2018-08-11 10:00:00 24.1 6 Nordeste 10 Nordeste 0 -- -- 58
2018-08-11 09:00:00 18.8 3 Nordeste 10 Nordeste 0 -- -- 74
2018-08-11 08:00:00 16.3 7 Nordeste 11 Nordeste 0 -- -- 78
2018-08-11 07:00:00 17.7 0 Calma 7 Oeste 0 -- -- 82
2018-08-11 06:00:00 19.1 0 Calma 11 Sudoeste 0 -- -- 79
2018-08-11 05:00:00 19.4 9 Oeste 13 Sudoeste 0 -- -- 84
2018-08-11 04:00:00 19.5 8 Sudoeste 10 Sudoeste 0 -- -- 80
2018-08-11 03:00:00 19.5 7 Oeste 14 Sur 0 -- -- 83
2018-08-11 02:00:00 19.7 5 Oeste 7 Oeste 0 -- -- 75
2018-08-11 01:00:00 20.2 3 Sur 9 Sur 0 -- -- 75
2018-08-11 00:00:00 21.4 4 Sudoeste 8 Oeste 0 -- -- 67
2018-08-10 23:00:00 22 7 Oeste 12 Oeste 0 -- -- 56
2018-08-10 22:00:00 24.2 10 Oeste 18 Oeste 0 -- -- 45
2018-08-10 21:00:00 27 14 Oeste 20 Oeste 0 -- -- 40
2018-08-10 20:00:00 31.5 15 Sudoeste 24 Oeste 0 -- -- 34
2018-08-10 19:00:00 33.9 18 Oeste 27 Sudoeste 0 -- -- 26
2018-08-10 18:00:00 34.8 21 Sudoeste 27 Sudoeste 0 -- -- 27
2018-08-10 17:00:00 34 18 Oeste 28 Sudoeste 0 -- -- 30
2018-08-10 16:00:00 32.2 22 Oeste 27 Sudoeste 0 -- -- 34
2018-08-10 15:00:00 31.2 17 Sudoeste 23 Sudoeste 0 -- -- 39
2018-08-10 14:00:00 32.2 11 Sudoeste 20 Sudoeste 0 -- -- 40
2018-08-10 13:00:00 31.8 4 Nordeste 19 Nordeste 0 -- -- 30
2018-08-10 12:00:00 30 6 Este 19 Este 0 -- -- 33
2018-08-10 11:00:00 25.4 7 Este 14 Este 0 -- -- 57
2018-08-10 10:00:00 20.3 3 Nordeste 6 Sudeste 0 -- -- 81
2018-08-10 09:00:00 16.2 2 Norte 7 Norte 0 -- -- 91
2018-08-10 08:00:00 15.1 3 Norte 7 Nordeste 0 -- -- 90
2018-08-10 07:00:00 15.4 3 Norte 10 Nordeste 0 -- -- 87
2018-08-10 06:00:00 15.5 4 Norte 7 Norte 0 -- -- 87
2018-08-10 05:00:00 15.1 3 Norte 9 Nordeste 0 -- -- 78
2018-08-10 04:00:00 17.2 3 Nordeste 14 Norte 0 -- -- 67
2018-08-10 03:00:00 19.3 9 Norte 16 Norte 0 -- -- 58
2018-08-10 02:00:00 18 4 Norte 8 Este 0 -- -- 73
2018-08-10 01:00:00 19.1 3 Norte 14 Oeste 0 -- -- 80
2018-08-10 00:00:00 20.4 12 Oeste 22 Oeste 0 -- -- 80
2018-08-09 23:00:00 20.3 12 Sudoeste 17 Oeste 0 -- -- 78
2018-08-09 22:00:00 21.4 12 Oeste 22 Oeste 0 -- -- 75
2018-08-09 21:00:00 23.7 15 Oeste 27 Oeste 0 -- -- 64
2018-08-09 20:00:00 25.7 21 Oeste 32 Oeste 0 -- -- 59
2018-08-09 19:00:00 26.9 25 Oeste 35 Oeste 0 -- -- 56
2018-08-09 18:00:00 28.5 24 Sudoeste 34 Oeste 0 -- -- 50
2018-08-09 17:00:00 30.3 24 Sudoeste 30 Sudoeste 0 -- -- 45
2018-08-09 16:00:00 31.3 23 Oeste 35 Oeste 0 -- -- 37
2018-08-09 15:00:00 30.6 19 Oeste 31 Oeste 0 -- -- 40
2018-08-09 14:00:00 30 20 Sudoeste 26 Sudoeste 0 -- -- 42
2018-08-09 13:00:00 29.2 14 Oeste 24 Sudoeste 0 -- -- 45
2018-08-09 12:00:00 27.3 5 Nordeste 11 Norte 0 -- -- 47
2018-08-09 11:00:00 25 4 Norte 15 Nordeste 0 -- -- 55
2018-08-09 10:00:00 21.9 5 Norte 15 Noroeste 0 -- -- 66
2018-08-09 09:00:00 18.8 4 Norte 10 Noroeste 0 -- -- 79
2018-08-09 08:00:00 16.5 6 Noroeste 10 Oeste 0 -- -- 86
2018-08-09 07:00:00 15.9 6 Noroeste 10 Noroeste 0 -- -- 87
2018-08-09 06:00:00 16.2 4 Oeste 9 Oeste 0 -- -- 82
2018-08-09 05:00:00 16.8 6 Oeste 11 Oeste 0 -- -- 81
2018-08-09 04:00:00 18.8 7 Sur 11 Noroeste 0 -- -- 72
2018-08-09 03:00:00 20.5 5 Noroeste 14 Noroeste 0 -- -- 67
2018-08-09 02:00:00 18.8 3 Noroeste 8 Oeste 0 -- -- 72
2018-08-09 01:00:00 18.5 4 Oeste 8 Oeste 0 -- -- 78
2018-08-09 00:00:00 19.4 5 Sudoeste 13 Sudoeste 0 -- -- 87
2018-08-08 23:00:00 20.6 10 Sudoeste 14 Sudoeste 0 -- -- 86
2018-08-08 22:00:00 21.5 10 Sudoeste 19 Sudoeste 0 -- -- 78
2018-08-08 21:00:00 24 16 Sudoeste 29 Sudoeste 0 -- -- 67
2018-08-08 20:00:00 26 22 Sudoeste 32 Sudoeste 0 -- -- 58
2018-08-08 19:00:00 26.4 22 Oeste 36 Oeste 0 -- -- 58
2018-08-08 18:00:00 27.2 28 Oeste 36 Sudoeste 0 -- -- 58
2018-08-08 17:00:00 28.5 28 Oeste 35 Sudoeste 0 -- -- 51
2018-08-08 16:00:00 29.6 23 Oeste 31 Oeste 0 -- -- 49
2018-08-08 15:00:00 29.4 21 Sudoeste 31 Sudoeste 0 -- -- 45
2018-08-08 14:00:00 29 22 Sudoeste 32 Sudoeste 0 -- -- 44
2018-08-08 13:00:00 28.4 19 Oeste 25 Sudoeste 0 -- -- 48
2018-08-08 12:00:00 28.5 13 Sudoeste 20 Sudoeste 0 -- -- 43
2018-08-08 11:00:00 26.2 4 Oeste 14 Oeste 0 -- -- 51
2018-08-08 10:00:00 21.9 7 Noroeste 14 Oeste 0 -- -- 62
2018-08-08 09:00:00 18 6 Oeste 10 Oeste 0 -- -- 75
2018-08-08 08:00:00 16.1 5 Oeste 8 Sur 0 -- -- 77
2018-08-08 07:00:00 17.2 6 Sur 12 Oeste 0 -- -- 71
2018-08-08 06:00:00 19.8 6 Oeste 12 Noroeste 0 -- -- 64
2018-08-08 05:00:00 21.3 5 Noroeste 11 Noroeste 0 -- -- 59
2018-08-08 04:00:00 23 6 Noroeste 15 Noroeste 0 -- -- 52
2018-08-08 03:00:00 24.2 8 Noroeste 16 Norte 0 -- -- 47
2018-08-08 02:00:00 22.8 9 Noroeste 16 Noroeste 0 -- -- 51
2018-08-08 01:00:00 21.3 6 Oeste 11 Oeste 0 -- -- 67
2018-08-08 00:00:00 22.4 6 Oeste 13 Oeste 0 -- -- 81
2018-08-07 23:00:00 23.5 10 Oeste 19 Sudoeste 0 -- -- 80
2018-08-07 22:00:00 24.7 14 Sudoeste 19 Sudoeste 0 -- -- 75
2018-08-07 21:00:00 27 15 Oeste 24 Sudoeste 0 -- -- 61
2018-08-07 20:00:00 28.8 20 Oeste 30 Oeste 0 -- -- 57
2018-08-07 19:00:00 33.1 19 Sudoeste 28 Sudoeste 0 -- -- 43
2018-08-07 18:00:00 37.6 19 Oeste 27 Oeste 0 -- -- 24
2018-08-07 17:00:00 39 19 Oeste 30 Oeste 0 -- -- 22
2018-08-07 16:00:00 38.4 22 Oeste 29 Sudoeste 0 -- -- 17
2018-08-07 15:00:00 35.4 22 Sudoeste 28 Sudoeste 0 -- -- 35
2018-08-07 14:00:00 34.9 16 Sudoeste 24 Oeste 0 -- -- 33
2018-08-07 13:00:00 34.2 11 Sudoeste 18 Sudoeste 0 -- -- 33
2018-08-07 12:00:00 32.1 9 Sudoeste 15 Sudoeste 0 -- -- 39
2018-08-07 11:00:00 27.5 4 Noroeste 9 Noroeste 0 -- -- 48
2018-08-07 10:00:00 24.1 6 Oeste 15 Oeste 0 -- -- 58
2018-08-07 09:00:00 22.1 7 Oeste 17 Oeste 0 -- -- 65
2018-08-07 08:00:00 21 8 Oeste 14 Oeste 0 -- -- 70
2018-08-07 07:00:00 22.6 7 Oeste 13 Noroeste 0 -- -- 67
2018-08-07 06:00:00 22.1 6 Oeste 13 Sudoeste 0 -- -- 87
2018-08-07 05:00:00 22.2 10 Sudoeste 13 Sudoeste 0 -- -- 88
2018-08-07 04:00:00 21.9 5 Sur 7 Sudoeste 0 -- -- 83
2018-08-07 03:00:00 22.5 3 Sudoeste 6 Sudoeste 0 -- -- 82
2018-08-07 02:00:00 22.4 6 Sur 8 Sur 0 -- -- 78
2018-08-07 01:00:00 23.8 4 Sur 11 Sur 0 -- -- 75
2018-08-07 00:00:00 25.4 4 Sudoeste 17 Sudoeste 0 -- -- 71
2018-08-06 23:00:00 25.7 9 Sudoeste 13 Oeste 0 -- -- 56
2018-08-06 22:00:00 27.9 8 Oeste 18 Oeste 0 -- -- 43
2018-08-06 21:00:00 30.4 13 Oeste 28 Oeste 0 -- -- 42
2018-08-06 20:00:00 33.5 19 Oeste 31 Oeste 0 -- -- 34
2018-08-06 19:00:00 36 24 Oeste 32 Oeste 0 -- -- 29
2018-08-06 18:00:00 38 22 Oeste 32 Oeste 0 -- -- 25
2018-08-06 17:00:00 38.7 24 Sudoeste 32 Oeste 0 -- -- 25
2018-08-06 16:00:00 39.9 21 Sudoeste 26 Sudoeste 0 -- -- 26
2018-08-06 15:00:00 39.6 13 Sudoeste 21 Sudoeste 0 -- -- 26
2018-08-06 14:00:00 37.5 4 Norte 17 Nordeste 0 -- -- 29
2018-08-06 13:00:00 36.1 6 Este 15 Nordeste 0 -- -- 30
2018-08-06 12:00:00 33.5 7 Este 15 Este 0 -- -- 37
2018-08-06 11:00:00 30.1 5 Nordeste 12 Nordeste 0 -- -- 47
2018-08-06 10:00:00 25.4 5 Nordeste 9 Nordeste 0 -- -- 62
2018-08-06 09:00:00 20.4 5 Nordeste 9 Nordeste 0 -- -- 81
2018-08-06 08:00:00 17.5 3 Norte 5 Nordeste 0 -- -- 88
2018-08-06 07:00:00 17.2 4 Nordeste 7 Este 0 -- -- 89
2018-08-06 06:00:00 17.8 3 Nordeste 9 Noroeste 0 -- -- 85
2018-08-06 05:00:00 18.7 4 Norte 10 Noroeste 0 -- -- 84
2018-08-06 04:00:00 20.2 4 Norte 12 Noroeste 0 -- -- 80
2018-08-06 03:00:00 21.5 3 Noroeste 11 Noroeste 0 -- -- 76
2018-08-06 02:00:00 22.2 8 Noroeste 13 Noroeste 0 -- -- 78
2018-08-06 01:00:00 22.4 8 Oeste 12 Sudoeste 0 -- -- 80
2018-08-06 00:00:00 23.5 11 Sudoeste 14 Sudoeste 0 -- -- 76
2018-08-05 23:00:00 24.1 8 Sudoeste 13 Oeste 0 -- -- 73
2018-08-05 22:00:00 26 10 Oeste 17 Sudoeste 0 -- -- 64
2018-08-05 21:00:00 28.6 14 Oeste 26 Sudoeste 0 -- -- 52
2018-08-05 20:00:00 31.7 19 Sudoeste 27 Oeste 0 -- -- 43
2018-08-05 19:00:00 34.6 21 Oeste 31 Sudoeste 0 -- -- 32
2018-08-05 18:00:00 36.5 21 Sudoeste 29 Sudoeste 0 -- -- 33
2018-08-05 17:00:00 38.4 21 Sudoeste 28 Sudoeste 0 -- -- 28
2018-08-05 16:00:00 38.4 22 Sudoeste 28 Sudoeste 0 -- -- 29
2018-08-05 15:00:00 39.1 7 Este 15 Nordeste 0 -- -- 26
2018-08-05 14:00:00 38 6 Este 16 Este 0 -- -- 29
2018-08-05 13:00:00 35.6 6 Sudeste 16 Este 0 -- -- 34
2018-08-05 12:00:00 32.7 4 Este 13 Nordeste 0 -- -- 41
2018-08-05 11:00:00 29.1 6 Nordeste 14 Nordeste 0 -- -- 52
2018-08-05 10:00:00 24.9 8 Nordeste 12 Nordeste 0 -- -- 66
2018-08-05 09:00:00 19.8 0 Calma 6 Nordeste 0 -- -- 89
2018-08-05 08:00:00 17 3 Norte 5 Nordeste 0 -- -- 90
2018-08-05 07:00:00 17.4 5 Nordeste 8 Nordeste 0 -- -- 88
2018-08-05 06:00:00 18 6 Nordeste 11 Noroeste 0 -- -- 87
2018-08-05 05:00:00 18.8 4 Noroeste 9 Norte 0 -- -- 85
2018-08-05 04:00:00 18.4 4 Noroeste 6 Norte 0 -- -- 85
2018-08-05 03:00:00 19.6 2 Noroeste 5 Noroeste 0 -- -- 82
2018-08-05 02:00:00 21 3 Noroeste 12 Noroeste 0 -- -- 82
2018-08-05 01:00:00 21.5 0 Calma 10 Oeste 0 -- -- 81
2018-08-05 00:00:00 22.8 4 Oeste 15 Sudoeste 0 -- -- 78
2018-08-04 23:00:00 23.8 10 Sudoeste 20 Sudoeste 0 -- -- 75
2018-08-04 22:00:00 24.5 12 Sudoeste 21 Oeste 0 -- -- 71
2018-08-04 21:00:00 26.1 13 Oeste 27 Oeste 0 -- -- 65
2018-08-04 20:00:00 28.5 17 Sudoeste 27 Sudoeste 0 -- -- 57
2018-08-04 19:00:00 29.9 19 Sudoeste 27 Sudoeste 0 -- -- 54
2018-08-04 18:00:00 31.3 19 Sudoeste 27 Sudoeste 0 -- -- 48
2018-08-04 17:00:00 31.6 20 Sudoeste 26 Sudoeste 0 -- -- 48
2018-08-04 16:00:00 31.8 19 Sudoeste 25 Sudoeste 0 -- -- 49
2018-08-04 15:00:00 32.7 19 Sudoeste 24 Sudoeste 0 -- -- 45
2018-08-04 14:00:00 33.3 16 Sudoeste 22 Sudoeste 0 -- -- 42
2018-08-04 13:00:00 32.9 16 Sudoeste 23 Sudoeste 0 -- -- 43
2018-08-04 12:00:00 31.4 14 Sudoeste 23 Sudoeste 0 -- -- 47
2018-08-04 11:00:00 30.1 13 Sudoeste 21 Sur 0 -- -- 49
2018-08-04 10:00:00 26.8 15 Sur 21 Sudoeste 0 -- -- 60
2018-08-04 09:00:00 22.2 0 Calma 9 Este 0 -- -- 81
2018-08-04 08:00:00 21.6 6 Oeste 9 Oeste 0 -- -- 79
2018-08-04 07:00:00 21.4 4 Sur 6 Sur 0 -- -- 77
2018-08-04 06:00:00 22.3 6 Sur 8 Sur 0 -- -- 73
2018-08-04 05:00:00 23.2 7 Sudoeste 14 Sudoeste 0 -- -- 75
2018-08-04 04:00:00 23.3 10 Oeste 13 Oeste 0 -- -- 72
2018-08-04 03:00:00 23.4 11 Sudoeste 17 Sudoeste 0 -- -- 74
2018-08-04 02:00:00 23 9 Sudoeste 12 Sudoeste 0 -- -- 76
2018-08-04 01:00:00 23.6 6 Sudoeste 12 Sudoeste 0 -- -- 75
2018-08-04 00:00:00 24.7 8 Sudoeste 14 Oeste 0 -- -- 74
2018-08-03 23:00:00 25.3 8 Sudoeste 10 Sudoeste 0 -- -- 67
2018-08-03 22:00:00 27.5 7 Oeste 13 Oeste 0 -- -- 54
2018-08-03 21:00:00 30.3 11 Oeste 22 Oeste 0 -- -- 48
2018-08-03 20:00:00 32.4 15 Sudoeste 23 Sudoeste 0 -- -- 44
2018-08-03 19:00:00 36.2 17 Sudoeste 25 Sudoeste 0 -- -- 35
2018-08-03 18:00:00 38.6 19 Sudoeste 27 Sudoeste 0 -- -- 29
2018-08-03 17:00:00 39.1 21 Sudoeste 27 Sudoeste 0 -- -- 28
2018-08-03 16:00:00 40 17 Sudoeste 24 Sudoeste 0 -- -- 25
2018-08-03 15:00:00 39.8 17 Sudoeste 22 Sudoeste 0 -- -- 25
2018-08-03 14:00:00 39.6 8 Nordeste 15 Este 0 -- -- 22
2018-08-03 13:00:00 37.6 5 Nordeste 19 Este 0 -- -- 25
2018-08-03 12:00:00 34.8 5 Nordeste 10 Nordeste 0 -- -- 29
2018-08-03 11:00:00 31.5 4 Nordeste 13 Nordeste 0 -- -- 34
2018-08-03 10:00:00 27.5 9 Nordeste 15 Nordeste 0 -- -- 43
2018-08-03 09:00:00 24.2 4 Norte 10 Norte 0 -- -- 50
2018-08-03 08:00:00 20.2 6 Norte 10 Norte 0 -- -- 61
2018-08-03 07:00:00 18.3 3 Norte 6 Sudoeste 0 -- -- 71
2018-08-03 06:00:00 19.1 2 Sudoeste 12 Sur 0 -- -- 66
2018-08-03 05:00:00 20.3 4 Noroeste 11 Nordeste 0 -- -- 61
2018-08-03 04:00:00 21.6 8 Nordeste 12 Norte 0 -- -- 59
2018-08-03 03:00:00 22.3 4 Nordeste 8 Nordeste 0 -- -- 59
2018-08-03 02:00:00 23.2 4 Nordeste 10 Nordeste 0 -- -- 58
2018-08-03 01:00:00 24.2 4 Nordeste 8 Sudeste 0 -- -- 55
2018-08-03 00:00:00 26.6 3 Este 15 Sur 0 -- -- 48
2018-08-02 23:00:00 28.8 6 Sudeste 16 Sur 0 -- -- 39
2018-08-02 22:00:00 30.8 6 Sudeste 15 Sur 0 -- -- 37
2018-08-02 21:00:00 35 7 Sudeste 15 Sur 0 -- -- 29
2018-08-02 20:00:00 39.1 5 Sudeste 24 Sudeste 0 -- -- 23
2018-08-02 19:00:00 41.3 8 Sudeste 22 Sudeste 0 -- -- 21
2018-08-02 18:00:00 42.2 8 Sudeste 24 Sudeste 0 -- -- 20
2018-08-02 17:00:00 42.3 10 Sudeste 31 Este 0 -- -- 18
2018-08-02 16:00:00 41.7 12 Este 36 Sudeste 0 -- -- 19
2018-08-02 15:00:00 40.8 14 Este 32 Este 0 -- -- 20
2018-08-02 14:00:00 40 10 Este 30 Este 0 -- -- 22
2018-08-02 13:00:00 38.3 12 Este 27 Este 0 -- -- 26
2018-08-02 12:00:00 34.6 11 Nordeste 23 Nordeste 0 -- -- 29
2018-08-02 11:00:00 31 13 Nordeste 22 Nordeste 0 -- -- 34
2018-08-02 10:00:00 25.7 11 Nordeste 20 Nordeste 0 -- -- 44
2018-08-02 09:00:00 22.1 7 Nordeste 13 Norte 0 -- -- 52
2018-08-02 08:00:00 21.3 4 Norte 16 Nordeste 0 -- -- 46
2018-08-02 07:00:00 21.7 9 Norte 16 Norte 0 -- -- 48
2018-08-02 06:00:00 21.7 3 Norte 18 Norte 0 -- -- 49
2018-08-02 05:00:00 22.1 12 Nordeste 18 Norte 0 -- -- 51
2018-08-02 04:00:00 21.7 7 Nordeste 16 Nordeste 0 -- -- 55
2018-08-02 03:00:00 21.3 3 Noroeste 5 Norte 0 -- -- 53
2018-08-02 02:00:00 21.1 3 Oeste 4 Oeste 0 -- -- 56
2018-08-02 01:00:00 23.9 0 Calma 4 Este 0 -- -- 49
2018-08-02 00:00:00 25.1 0 Calma 9 Sudeste 0 -- -- 47
2018-08-01 23:00:00 27.1 3 Este 7 Este 0 -- -- 44
2018-08-01 22:00:00 30.2 2 Sudeste 11 Este 0 -- -- 37
2018-08-01 21:00:00 34.6 4 Sudeste 24 Este 0 -- -- 28
2018-08-01 20:00:00 37.9 10 Este 32 Este 0 -- -- 21
2018-08-01 19:00:00 39.7 15 Sudeste 36 Este 0 -- -- 19
2018-08-01 18:00:00 40.2 12 Este 26 Sudeste 0 -- -- 18
2018-08-01 17:00:00 34.5 7 Oeste 22 Oeste 0 -- -- 32
2018-08-01 16:00:00 38.1 17 Sudoeste 23 Sudoeste 0 -- -- 29
2018-08-01 15:00:00 38.5 8 Este 23 Nordeste 0 -- -- 21
2018-08-01 14:00:00 38.3 7 Este 23 Nordeste 0 -- -- 21
2018-08-01 13:00:00 35.6 13 Nordeste 24 Nordeste 0 -- -- 24
2018-08-01 12:00:00 32.6 13 Nordeste 21 Nordeste 0 -- -- 37
2018-08-01 11:00:00 29.1 9 Nordeste 16 Nordeste 0 -- -- 51
2018-08-01 10:00:00 24.7 6 Nordeste 13 Nordeste 0 -- -- 69
2018-08-01 09:00:00 19.5 3 Norte 6 Norte 0 -- -- 89
2018-08-01 08:00:00 16.6 2 Norte 4 Nordeste 0 -- -- 91
2018-08-01 07:00:00 17.8 0 Calma 9 Nordeste 0 -- -- 87
2018-08-01 06:00:00 19.4 7 Norte 14 Norte 0 -- -- 83
2018-08-01 05:00:00 21.5 5 Noroeste 14 Oeste 0 -- -- 83
2018-08-01 04:00:00 21 10 Oeste 15 Sudoeste 0 -- -- 85
2018-08-01 03:00:00 21.1 7 Sudoeste 10 Sudoeste 0 -- -- 83
2018-08-01 02:00:00 21.3 5 Sudoeste 13 Sur 0 -- -- 83
2018-08-01 01:00:00 21.5 3 Sudeste 9 Sudeste 0 -- -- 72
2018-08-01 00:00:00 23.2 4 Sudeste 14 Oeste 0 -- -- 61
2018-07-31 23:00:00 24.7 12 Oeste 21 Oeste 0 -- -- 57
2018-07-31 22:00:00 25.5 11 Oeste 21 Oeste 0 -- -- 57
2018-07-31 21:00:00 27.5 15 Oeste 28 Oeste 0 -- -- 53
2018-07-31 20:00:00 28.9 20 Oeste 27 Oeste 0 -- -- 51
2018-07-31 19:00:00 29.7 22 Oeste 28 Oeste 0 -- -- 50
2018-07-31 18:00:00 33 19 Oeste 32 Oeste 0 -- -- 41
2018-07-31 17:00:00 34 23 Oeste 31 Oeste 0 -- -- 39
2018-07-31 16:00:00 34 24 Oeste 32 Oeste 0 -- -- 36
2018-07-31 15:00:00 34 19 Sudoeste 27 Oeste 0 -- -- 39
2018-07-31 14:00:00 33.2 15 Sudoeste 21 Sudoeste 0 -- -- 41
2018-07-31 13:00:00 31 5 Nordeste 14 Nordeste 0 -- -- 44
2018-07-31 12:00:00 28.4 5 Nordeste 13 Nordeste 0 -- -- 51
2018-07-31 11:00:00 25 5 Norte 13 Nordeste 0 -- -- 64
2018-07-31 10:00:00 21.4 8 Nordeste 10 Nordeste 0 -- -- 77
2018-07-31 09:00:00 18.4 3 Norte 10 Norte 0 -- -- 92
2018-07-31 08:00:00 16.4 4 Norte 9 Norte 0 -- -- 94
2018-07-31 07:00:00 16.3 4 Norte 9 Nordeste 0 -- -- 95
2018-07-31 06:00:00 16.6 4 Norte 8 Norte 0 -- -- 94
2018-07-31 05:00:00 16.4 3 Norte 7 Norte 0 -- -- 95
2018-07-31 04:00:00 15.5 3 Noroeste 5 Noroeste 0 -- -- 94
2018-07-31 03:00:00 17.1 0 Calma 7 Nordeste 0 -- -- 90
2018-07-31 02:00:00 18.2 3 Nordeste 4 Oeste 0 -- -- 91
2018-07-31 01:00:00 19.9 2 Oeste 18 Sudoeste 0 -- -- 89
2018-07-31 00:00:00 20.8 13 Sudoeste 20 Sudoeste 0 -- -- 86
2018-07-30 23:00:00 20.7 13 Sudoeste 19 Sudoeste 0 -- -- 85
2018-07-30 22:00:00 21 12 Sudoeste 21 Sudoeste 0 -- -- 82
2018-07-30 21:00:00 22.7 17 Sudoeste 31 Oeste 0 -- -- 71
2018-07-30 20:00:00 24.3 23 Oeste 38 Oeste 0 -- -- 62
2018-07-30 19:00:00 25.9 26 Oeste 39 Oeste 0 -- -- 55
2018-07-30 18:00:00 26.8 29 Oeste 41 Sudoeste 0 -- -- 56
2018-07-30 17:00:00 28 28 Sudoeste 36 Oeste 0 -- -- 52
2018-07-30 16:00:00 28.3 26 Sudoeste 38 Sudoeste 0 -- -- 52
2018-07-30 15:00:00 29.1 25 Sudoeste 34 Sudoeste 0 -- -- 48
2018-07-30 14:00:00 29 23 Sudoeste 29 Sudoeste 0 -- -- 48
2018-07-30 13:00:00 28 18 Oeste 23 Sudoeste 0 -- -- 47
2018-07-30 12:00:00 27.5 13 Sudoeste 18 Sudoeste 0 -- -- 48
2018-07-30 11:00:00 24 3 Oeste 11 Oeste 0 -- -- 54
2018-07-30 10:00:00 20.6 5 Noroeste 15 Noroeste 0 -- -- 66
2018-07-30 09:00:00 16.3 5 Noroeste 9 Noroeste 0 -- -- 84
2018-07-30 08:00:00 12.4 5 Oeste 10 Oeste 0 -- -- 90
2018-07-30 07:00:00 12.1 7 Oeste 9 Sudoeste 0 -- -- 90
2018-07-30 06:00:00 13.6 3 Sudoeste 5 Sur 0 -- -- 87
2018-07-30 05:00:00 14.2 4 Oeste 7 Sur 0 -- -- 88
2018-07-30 04:00:00 15 3 Sur 7 Noroeste 0 -- -- 82
2018-07-30 03:00:00 16.7 0 Calma 10 Noroeste 0 -- -- 78
2018-07-30 02:00:00 16.1 6 Oeste 9 Oeste 0 -- -- 84
2018-07-30 01:00:00 17.6 5 Oeste 10 Oeste 0 -- -- 83
2018-07-30 00:00:00 19.4 10 Oeste 23 Sudoeste 0 -- -- 86
2018-07-29 23:00:00 20.4 16 Sudoeste 24 Sudoeste 0 -- -- 83
2018-07-29 22:00:00 20.8 17 Sudoeste 32 Sudoeste 0 -- -- 80
2018-07-29 21:00:00 22.5 23 Oeste 36 Sudoeste 0 -- -- 70
2018-07-29 20:00:00 24.3 26 Sudoeste 40 Sudoeste 0 -- -- 64
2018-07-29 19:00:00 25.1 28 Sudoeste 39 Sudoeste 0 -- -- 58
2018-07-29 18:00:00 25.3 31 Sudoeste 39 Sudoeste 0 -- -- 57
2018-07-29 17:00:00 26.3 28 Sudoeste 38 Oeste 0 -- -- 54
2018-07-29 16:00:00 27.1 27 Sudoeste 36 Sudoeste 0 -- -- 50
2018-07-29 15:00:00 27.4 24 Sudoeste 33 Sudoeste 0 -- -- 47
2018-07-29 14:00:00 26.8 26 Oeste 35 Oeste 0 -- -- 49
2018-07-29 13:00:00 27.3 25 Sudoeste 31 Sudoeste 0 -- -- 50
2018-07-29 12:00:00 26.5 10 Noroeste 19 Oeste 0 -- -- 35
2018-07-29 11:00:00 24.4 9 Oeste 19 Noroeste 0 -- -- 54
2018-07-29 10:00:00 21.1 10 Noroeste 23 Noroeste 0 -- -- 69
2018-07-29 09:00:00 17.9 10 Oeste 17 Oeste 0 -- -- 86
2018-07-29 08:00:00 15.3 9 Oeste 17 Oeste 0 -- -- 91
2018-07-29 07:00:00 14.9 9 Oeste 11 Oeste 0 -- -- 92
2018-07-29 06:00:00 15.7 7 Oeste 14 Oeste 0 -- -- 88
2018-07-29 05:00:00 16.1 8 Oeste 10 Oeste 0 -- -- 88
2018-07-29 04:00:00 16.4 6 Oeste 9 Oeste 0 -- -- 89
2018-07-29 03:00:00 17.5 5 Sudoeste 8 Sudoeste 0 -- -- 86
2018-07-29 02:00:00 18.6 5 Sur 10 Oeste 0 -- -- 84
2018-07-29 01:00:00 19.9 7 Oeste 15 Sudoeste 0 -- -- 90
2018-07-29 00:00:00 20.7 9 Sudoeste 20 Sudoeste 0 -- -- 87
2018-07-28 23:00:00 21.3 14 Sudoeste 19 Sudoeste 0 -- -- 86
2018-07-28 22:00:00 21.5 13 Sudoeste 20 Sudoeste 0 -- -- 79
2018-07-28 21:00:00 23.5 14 Sudoeste 32 Sudoeste 0 -- -- 66
2018-07-28 20:00:00 24.4 23 Sudoeste 34 Oeste 0 -- -- 61
2018-07-28 19:00:00 25.6 27 Sudoeste 35 Oeste 0 -- -- 58
2018-07-28 18:00:00 26.8 27 Sudoeste 36 Sudoeste 0 -- -- 51
2018-07-28 17:00:00 27.3 27 Sudoeste 35 Sudoeste 0 -- -- 51
2018-07-28 16:00:00 27.8 25 Sudoeste 34 Sudoeste 0 -- -- 50
2018-07-28 15:00:00 28.1 22 Sudoeste 31 Oeste 0 -- -- 45
2018-07-28 14:00:00 28.4 22 Sudoeste 33 Oeste 0 -- -- 40
2018-07-28 13:00:00 28 21 Sudoeste 27 Oeste 0 -- -- 44
2018-07-28 12:00:00 27.2 13 Oeste 22 Sudoeste 0 -- -- 51
2018-07-28 11:00:00 25.5 8 Sudoeste 16 Sudoeste 0 -- -- 56
2018-07-28 10:00:00 21.5 3 Norte 10 Noroeste 0 -- -- 67
2018-07-28 09:00:00 17.7 4 Noroeste 8 Noroeste 0 -- -- 82
2018-07-28 08:00:00 13.9 3 Norte 6 Oeste 0 -- -- 87
2018-07-28 07:00:00 16.1 5 Noroeste 12 Noroeste 0 -- -- 84
2018-07-28 06:00:00 15.8 7 Noroeste 14 Noroeste 0 -- -- 85
2018-07-28 05:00:00 15.8 7 Oeste 9 Oeste 0 -- -- 82
2018-07-28 04:00:00 16.9 6 Oeste 8 Oeste 0 -- -- 78
2018-07-28 03:00:00 18.5 4 Oeste 9 Oeste 0 -- -- 70
2018-07-28 02:00:00 21 4 Oeste 14 Noroeste 0 -- -- 62
2018-07-28 01:00:00 21.8 7 Oeste 14 Noroeste 0 -- -- 60
2018-07-28 00:00:00 20.8 9 Oeste 15 Oeste 0 -- -- 77
2018-07-27 23:00:00 22 11 Oeste 18 Sudoeste 0 -- -- 78
2018-07-27 22:00:00 22.7 13 Sudoeste 26 Oeste 0 -- -- 76
2018-07-27 21:00:00 25.3 18 Oeste 31 Oeste 0 -- -- 65
2018-07-27 20:00:00 26.5 24 Oeste 35 Oeste 0 -- -- 59
2018-07-27 19:00:00 26.5 27 Oeste 37 Oeste 0 -- -- 57
2018-07-27 18:00:00 28.1 27 Sudoeste 36 Oeste 0 -- -- 51
2018-07-27 17:00:00 29.4 26 Sudoeste 34 Sudoeste 0 -- -- 46
2018-07-27 16:00:00 30.5 23 Sudoeste 29 Sudoeste 0 -- -- 43
2018-07-27 15:00:00 30.3 20 Sudoeste 27 Sudoeste 0 -- -- 47
2018-07-27 14:00:00 30.6 15 Sudoeste 23 Oeste 0 -- -- 47
2018-07-27 13:00:00 29.2 11 Sudoeste 20 Sudoeste 0 -- -- 51
2018-07-27 12:00:00 27.4 14 Sudoeste 18 Sudoeste 0 -- -- 56
2018-07-27 11:00:00 24.1 3 Este 9 Nordeste 0 -- -- 71
2018-07-27 10:00:00 20.3 4 Norte 10 Nordeste 0 -- -- 85
2018-07-27 09:00:00 17.1 3 Nordeste 10 Norte 0 -- -- 96
2018-07-27 08:00:00 14.5 5 Norte 11 Noroeste 0 -- -- 94
2018-07-27 07:00:00 16 6 Oeste 10 Noroeste 0 -- -- 89
2018-07-27 06:00:00 16.1 5 Oeste 9 Oeste 0 -- -- 89
2018-07-27 05:00:00 16.8 4 Oeste 9 Oeste 0 -- -- 92
2018-07-27 04:00:00 17.3 5 Sudoeste 7 Sudoeste 0 -- -- 94
2018-07-27 03:00:00 17.6 7 Sudoeste 10 Sudoeste 0 -- -- 94
2018-07-27 02:00:00 17.2 9 Sudoeste 12 Sur 0 -- -- 93
2018-07-27 01:00:00 16.9 10 Sur 12 Sur 0 -- -- 92
2018-07-27 00:00:00 18.1 4 Oeste 5 Oeste 0 -- -- 87
2018-07-26 23:00:00 19.5 6 Oeste 12 Sudoeste 0 -- -- 85
2018-07-26 22:00:00 20.8 10 Oeste 24 Oeste 0 -- -- 81
2018-07-26 21:00:00 23.2 17 Oeste 27 Oeste 0 -- -- 73
2018-07-26 20:00:00 25.1 21 Oeste 28 Sudoeste 0 -- -- 66
2018-07-26 19:00:00 26.2 22 Sudoeste 31 Oeste 0 -- -- 62
2018-07-26 18:00:00 27.2 21 Sudoeste 27 Sudoeste 0 -- -- 60
2018-07-26 17:00:00 28.1 18 Sudoeste 30 Oeste 0 -- -- 56
2018-07-26 16:00:00 28.7 16 Sudoeste 24 Sudoeste 0 -- -- 55
2018-07-26 15:00:00 27.7 15 Sudoeste 27 Sudoeste 0 -- -- 57
2018-07-26 14:00:00 27.3 14 Sudoeste 24 Sudoeste 0 -- -- 58
2018-07-26 13:00:00 26.8 14 Sudoeste 23 Sur 0 -- -- 59
2018-07-26 12:00:00 25.6 14 Sudoeste 25 Sudoeste 0 -- -- 65
2018-07-26 11:00:00 23.3 9 Sur 15 Sur 0 -- -- 75
2018-07-26 10:00:00 18.1 3 Nordeste 8 Norte 0 -- -- 98
2018-07-26 09:00:00 14.8 0 Calma 3 Norte 0 -- -- 98
2018-07-26 08:00:00 13.2 0 Calma 4 Oeste 0 -- -- 97
2018-07-26 07:00:00 15.1 3 Sur 9 Sur 0 -- -- 97
2018-07-26 06:00:00 15.8 8 Sur 9 Sur 0 -- -- 97
2018-07-26 05:00:00 16.8 6 Sur 10 Sur 0 -- -- 97
2018-07-26 04:00:00 16.7 8 Sudoeste 12 Sudoeste 0 -- -- 96
2018-07-26 03:00:00 15.9 7 Sudoeste 9 Sudoeste 0 -- -- 96
2018-07-26 02:00:00 15 5 Sudoeste 10 Sur 0 -- -- 96
2018-07-26 01:00:00 13.6 7 Sur 9 Sur 0 -- -- 91
2018-07-26 00:00:00 15.9 2 Sudoeste 5 Sur 0 -- -- 88
2018-07-25 23:00:00 17.3 6 Sur 8 Sur 0 -- -- 84
2018-07-25 22:00:00 19.7 7 Sudoeste 23 Oeste 0 -- -- 83
2018-07-25 21:00:00 22.6 18 Oeste 25 Sudoeste 0 -- -- 74
2018-07-25 20:00:00 25.2 19 Sudoeste 28 Oeste 0 -- -- 62
2018-07-25 19:00:00 25.8 21 Oeste 33 Sudoeste 0 -- -- 61
2018-07-25 18:00:00 27.1 24 Sudoeste 33 Sudoeste 0 -- -- 59
2018-07-25 17:00:00 28.2 26 Sudoeste 33 Sudoeste 0 -- -- 51
2018-07-25 16:00:00 29.4 23 Oeste 32 Oeste 0 -- -- 48
2018-07-25 15:00:00 28.6 23 Oeste 31 Sudoeste 0 -- -- 50
2018-07-25 14:00:00 27.7 21 Oeste 27 Oeste 0 -- -- 56
2018-07-25 13:00:00 27.5 16 Sudoeste 22 Sudoeste 0 -- -- 57
2018-07-25 12:00:00 27.4 11 Sudoeste 19 Sudoeste 0 -- -- 55
2018-07-25 11:00:00 24.5 3 Nordeste 7 Nordeste 0 -- -- 66
2018-07-25 10:00:00 20 2 Norte 5 Nordeste 0 -- -- 82
2018-07-25 09:00:00 16.5 2 Oeste 4 Sudoeste 0 -- -- 98
2018-07-25 08:00:00 12.8 3 Sur 5 Sur 0 -- -- 95
2018-07-25 07:00:00 13.4 0 Calma 5 Norte 0 -- -- 94
2018-07-25 06:00:00 14.1 3 Sur 6 Sur 0 -- -- 92
2018-07-25 05:00:00 15.3 3 Sudoeste 6 Sudoeste 0 -- -- 90
2018-07-25 04:00:00 16.6 4 Oeste 7 Oeste 0 -- -- 89
2018-07-25 03:00:00 17.7 5 Oeste 13 Oeste 0 -- -- 93
2018-07-25 02:00:00 16.9 7 Sudoeste 10 Sudoeste 0 -- -- 95
2018-07-25 01:00:00 16.7 8 Sudoeste 12 Sudoeste 0 -- -- 95
2018-07-25 00:00:00 16.8 6 Sur 8 Sur 0 -- -- 87
2018-07-24 23:00:00 18.6 0 Calma 5 Sudoeste 0 -- -- 87
2018-07-24 22:00:00 20 6 Sudoeste 27 Sudoeste 0 -- -- 80
2018-07-24 21:00:00 22.5 17 Oeste 33 Oeste 0 -- -- 71
2018-07-24 20:00:00 24.4 22 Oeste 36 Oeste 0 -- -- 65
2018-07-24 19:00:00 25.8 24 Oeste 36 Oeste 0 -- -- 56
2018-07-24 18:00:00 27.7 28 Oeste 37 Sudoeste 0 -- -- 47
2018-07-24 17:00:00 29.4 25 Sudoeste 33 Sudoeste 0 -- -- 40
2018-07-24 16:00:00 29.5 23 Oeste 32 Sudoeste 0 -- -- 42
2018-07-24 15:00:00 28.8 21 Sudoeste 28 Sudoeste 0 -- -- 45
2018-07-24 14:00:00 28.1 16 Sudoeste 27 Sudoeste 0 -- -- 50
2018-07-24 13:00:00 26.9 14 Sudoeste 24 Sur 0 -- -- 53
2018-07-24 12:00:00 26.4 10 Sur 17 Sur 0 -- -- 54
2018-07-24 11:00:00 22.6 3 Nordeste 8 Norte 0 -- -- 67
2018-07-24 10:00:00 19.2 3 Nordeste 9 Nordeste 0 -- -- 79
2018-07-24 09:00:00 16.3 4 Noroeste 8 Oeste 0 -- -- 94
2018-07-24 08:00:00 14.2 6 Oeste 11 Oeste 0 -- -- 95
2018-07-24 07:00:00 13.7 4 Sudoeste 11 Oeste 0 -- -- 90
2018-07-24 06:00:00 14.4 5 Sudoeste 13 Oeste 0 -- -- 90
2018-07-24 05:00:00 14.5 6 Oeste 10 Oeste 0 -- -- 93
2018-07-24 04:00:00 15.4 5 Oeste 8 Sudoeste 0 -- -- 96
2018-07-24 03:00:00 16.3 6 Sudoeste 8 Sudoeste 0 -- -- 96
2018-07-24 02:00:00 16.2 7 Sudoeste 9 Sudoeste 0 -- -- 95
2018-07-24 01:00:00 17.3 5 Sudoeste 6 Sudoeste 0 -- -- 94
2018-07-24 00:00:00 18.5 4 Sudoeste 8 Oeste 0 -- -- 91
2018-07-23 23:00:00 19.6 7 Oeste 12 Sudoeste 0 -- -- 89
2018-07-23 22:00:00 21.2 9 Sudoeste 17 Oeste 0 -- -- 83
2018-07-23 21:00:00 24.5 13 Oeste 21 Oeste 0 -- -- 71
2018-07-23 20:00:00 26.5 15 Oeste 25 Oeste 0 -- -- 63
2018-07-23 19:00:00 27.3 17 Sudoeste 26 Sudoeste 0 -- -- 62
2018-07-23 18:00:00 28.2 17 Sudoeste 30 Sudoeste 0 -- -- 60
2018-07-23 17:00:00 28.6 21 Sudoeste 30 Oeste 0 -- -- 59
2018-07-23 16:00:00 27.8 23 Sudoeste 35 Oeste 0 -- -- 63
2018-07-23 15:00:00 27.8 26 Sudoeste 33 Sudoeste 0 -- -- 63
2018-07-23 14:00:00 29.2 22 Sudoeste 27 Sudoeste 0 -- -- 60
2018-07-23 13:00:00 29.8 13 Sudoeste 23 Sudoeste 0 -- -- 57
2018-07-23 12:00:00 28.9 12 Sur 20 Sur 0 -- -- 59
2018-07-23 11:00:00 25.9 10 Sur 19 Sur 0 -- -- 71
2018-07-23 10:00:00 20.8 4 Sudeste 11 Nordeste 0 -- -- 95
2018-07-23 09:00:00 17.9 6 Nordeste 10 Nordeste 0 -- -- 98
2018-07-23 08:00:00 13.9 4 Nordeste 8 Nordeste 0 -- -- 97
2018-07-23 07:00:00 13 6 Nordeste 9 Nordeste 0 -- -- 97
2018-07-23 06:00:00 14.2 5 Noroeste 8 Noroeste 0 -- -- 97
2018-07-23 05:00:00 15.4 4 Oeste 7 Oeste 0 -- -- 96
2018-07-23 04:00:00 14.1 3 Sudoeste 10 Sur 0 -- -- 96
2018-07-23 03:00:00 13.2 0 Calma 5 Sur 0 -- -- 92
2018-07-23 02:00:00 15.2 2 Sur 5 Sudeste 0 -- -- 94
2018-07-23 01:00:00 15.1 3 Sudeste 6 Sudeste 0 -- -- 88
2018-07-23 00:00:00 16.9 4 Sudoeste 5 Sudoeste 0 -- -- 91